Time;durP1;ratioP1;P1;durP2;ratioP2;P2;SDS_P1;SDS_P2;PMS_P1;PMS_P2;Temp;Humidity;BMP_temperature;BMP_pressure;BME280_temperature;BME280_humidity;BME280_pressure;Samples;Min_cycle;Max_cycle;Signal;HPM_P1;HPM_P2
2022/04/28 00:01:18;;;;;;;16.07;13.53;;;;;;;10.67;100.00;99999.16;5010519;28;20224;-79
2022/04/28 00:03:48;;;;;;;17.20;12.67;;;;;;;10.80;100.00;100004.69;5010674;28;20392;-79
2022/04/28 00:06:17;;;;;;;17.07;13.73;;;;;;;10.60;100.00;100000.41;5011330;28;20202;-79
2022/04/28 00:08:48;;;;;;;14.27;12.20;;;;;;;10.73;100.00;99998.84;5003119;28;20203;-78
2022/04/28 00:11:20;;;;;;;16.47;13.07;;;;;;;10.65;100.00;100000.19;5005295;28;20285;-78
2022/04/28 00:13:49;;;;;;;14.60;12.33;;;;;;;10.71;100.00;99990.13;5003948;28;20205;-79
2022/04/28 00:16:18;;;;;;;17.10;12.43;;;;;;;10.71;100.00;99992.78;5001571;28;20252;-78
2022/04/28 00:18:50;;;;;;;16.97;12.67;;;;;;;10.71;100.00;99995.44;4983289;28;20185;-78
2022/04/28 00:21:20;;;;;;;20.50;12.60;;;;;;;10.74;100.00;100000.56;5046507;28;20196;-78
2022/04/28 00:23:49;;;;;;;15.20;12.63;;;;;;;10.76;100.00;99992.53;4943601;29;20208;-78
2022/04/28 00:26:18;;;;;;;16.63;13.27;;;;;;;10.56;100.00;99998.84;4949757;29;20204;-78
2022/04/28 00:28:46;;;;;;;17.73;13.30;;;;;;;10.64;100.00;100001.97;4952651;28;20232;-78
2022/04/28 00:31:17;;;;;;;16.00;12.50;;;;;;;10.50;100.00;100000.00;4949686;29;20256;-78
2022/04/28 00:33:48;;;;;;;16.67;12.80;;;;;;;10.59;100.00;99999.53;4918134;29;20200;-78
2022/04/28 00:36:19;;;;;;;16.57;12.97;;;;;;;10.66;100.00;100000.09;4958826;28;20203;-79
2022/04/28 00:38:49;;;;;;;21.07;12.97;;;;;;;10.63;100.00;100002.91;4989376;28;20199;-79
2022/04/28 00:41:20;;;;;;;16.87;12.67;;;;;;;10.54;100.00;100004.22;4988610;28;20210;-79
2022/04/28 00:43:49;;;;;;;17.57;12.93;;;;;;;10.58;100.00;100005.78;4993967;28;20191;-79
2022/04/28 00:46:22;;;;;;;20.30;12.90;;;;;;;10.67;100.00;100006.25;4993133;28;20191;-79
2022/04/28 00:51:40;;;;;;;16.30;12.77;;;;;;;10.61;100.00;99999.47;4952924;29;20208;-79
2022/04/28 00:54:09;;;;;;;16.73;13.27;;;;;;;10.35;100.00;100010.53;4932097;29;20394;-79
2022/04/28 00:56:39;;;;;;;17.40;12.67;;;;;;;10.44;100.00;100013.56;4890628;29;20254;-79
2022/04/28 00:59:08;;;;;;;18.30;13.27;;;;;;;10.37;100.00;100006.00;4856372;29;20203;-79
2022/04/28 01:01:40;;;;;;;16.67;12.77;;;;;;;10.34;100.00;100003.50;4864070;29;20239;-79
2022/04/28 01:04:13;;;;;;;16.27;12.83;;;;;;;10.27;100.00;99995.84;4877480;29;20199;-79
2022/04/28 01:06:44;;;;;;;20.53;13.33;;;;;;;10.30;100.00;100002.78;4880395;29;20203;-79
2022/04/28 01:09:14;;;;;;;16.43;13.23;;;;;;;10.31;100.00;100010.66;4844665;29;20212;-79
2022/04/28 01:11:46;;;;;;;15.17;13.17;;;;;;;10.39;100.00;100004.97;4842943;29;20218;-79
2022/04/28 01:14:16;;;;;;;14.50;12.97;;;;;;;10.42;100.00;100001.31;4833400;29;20200;-79
2022/04/28 01:16:48;;;;;;;16.17;12.83;;;;;;;10.39;100.00;99997.03;4857370;29;20257;-79
2022/04/28 01:19:16;;;;;;;18.03;13.57;;;;;;;10.31;100.00;100005.34;4857891;29;20216;-79
2022/04/28 01:21:46;;;;;;;19.37;14.23;;;;;;;10.19;100.00;100008.56;4860188;29;20256;-79
2022/04/28 01:24:15;;;;;;;17.47;13.30;;;;;;;10.14;100.00;100015.03;4858882;29;20208;-79
2022/04/28 01:26:45;;;;;;;19.43;14.37;;;;;;;10.03;100.00;100005.81;4824917;29;20212;-79
2022/04/28 01:29:14;;;;;;;17.13;14.00;;;;;;;10.06;100.00;100015.41;4827954;29;20288;-79
2022/04/28 01:31:42;;;;;;;16.87;13.87;;;;;;;10.12;100.00;100016.88;4915237;29;20206;-79
2022/04/28 01:34:10;;;;;;;15.20;13.23;;;;;;;10.10;100.00;100019.59;4977014;28;20194;-79
2022/04/28 01:36:39;;;;;;;19.13;14.00;;;;;;;9.85;100.00;100025.22;5007095;28;20206;-79
2022/04/28 01:39:10;;;;;;;17.27;14.47;;;;;;;9.90;100.00;100025.84;5009471;28;20199;-79
2022/04/28 01:41:40;;;;;;;17.77;14.33;;;;;;;9.84;100.00;100019.97;5011850;28;20202;-79
2022/04/28 01:44:10;;;;;;;19.10;13.33;;;;;;;9.85;100.00;100027.03;5013105;28;20197;-79
2022/04/28 01:46:38;;;;;;;17.53;14.57;;;;;;;9.86;100.00;100021.66;5057665;28;20217;-78
2022/04/28 01:49:07;;;;;;;17.50;14.07;;;;;;;9.79;100.00;100030.78;5055807;28;20239;-79
2022/04/28 01:57:12;;;;;;;19.90;14.67;;;;;;;9.53;100.00;100029.34;5012495;28;20205;-79
2022/04/28 01:59:42;;;;;;;19.77;15.27;;;;;;;9.51;100.00;100031.22;5012350;28;20199;-79
2022/04/28 02:02:11;;;;;;;19.20;15.40;;;;;;;9.55;100.00;100031.91;4969994;28;20200;-79
2022/04/28 02:04:40;;;;;;;21.63;15.60;;;;;;;9.54;100.00;100033.69;4968382;28;20200;-79
2022/04/28 02:07:11;;;;;;;23.27;15.57;;;;;;;9.39;100.00;100037.91;4968369;28;20279;-79
2022/04/28 02:09:42;;;;;;;20.67;15.43;;;;;;;9.52;100.00;100040.00;4937921;28;20192;-79
2022/04/28 02:12:13;;;;;;;18.60;15.30;;;;;;;9.54;100.00;100033.69;4992305;28;20292;-79
2022/04/28 02:14:41;;;;;;;27.50;15.40;;;;;;;9.38;100.00;100040.63;4973995;28;20191;-78
2022/04/28 02:17:13;;;;;;;23.07;16.27;;;;;;;9.54;100.00;100038.13;4968656;28;20207;-79
2022/04/28 02:19:45;;;;;;;19.67;15.83;;;;;;;9.51;100.00;100040.94;4973317;28;20199;-79
2022/04/28 02:22:14;;;;;;;20.67;15.93;;;;;;;9.56;100.00;100037.16;4990715;28;20203;-79
2022/04/28 02:24:44;;;;;;;24.47;16.30;;;;;;;9.51;100.00;100040.94;4992321;28;20278;-79
2022/04/28 02:27:12;;;;;;;19.53;16.13;;;;;;;9.52;100.00;100034.72;4987230;28;20207;-79
2022/04/28 02:29:41;;;;;;;18.80;14.97;;;;;;;9.57;100.00;100043.31;4988336;28;20725;-79
2022/04/28 02:32:10;;;;;;;25.80;16.53;;;;;;;9.46;100.00;100041.16;4999735;28;20207;-79
2022/04/28 02:34:44;;;;;;;18.10;15.63;;;;;;;9.48;100.00;100043.72;5042352;28;20201;-79
2022/04/28 02:37:13;;;;;;;18.23;15.77;;;;;;;9.57;100.00;100038.88;5010244;28;20275;-79
2022/04/28 02:39:49;;;;;;;20.70;16.03;;;;;;;9.41;100.00;100037.84;5012408;28;20205;-79
2022/04/28 02:42:18;;;;;;;20.13;15.67;;;;;;;9.43;100.00;100031.56;5009535;28;20202;-79
2022/04/28 02:44:47;;;;;;;18.73;16.27;;;;;;;9.44;100.00;100042.97;5010353;28;20307;-79
2022/04/28 02:47:16;;;;;;;24.03;15.80;;;;;;;9.41;100.00;100033.41;5012742;28;20233;-79
2022/04/28 02:49:46;;;;;;;20.37;15.77;;;;;;;9.43;100.00;100047.41;5009021;28;20704;-79
2022/04/28 02:52:14;;;;;;;21.53;16.00;;;;;;;9.23;100.00;100042.16;5008337;28;20473;-79
2022/04/28 02:54:44;;;;;;;22.00;15.50;;;;;;;9.31;100.00;100033.91;5014585;28;20195;-79
2022/04/28 02:57:13;;;;;;;22.03;16.70;;;;;;;9.22;100.00;100040.44;5013050;28;20364;-79
2022/04/28 02:59:41;;;;;;;23.83;16.53;;;;;;;9.19;100.00;100032.66;5009385;28;20191;-79
2022/04/28 03:02:10;;;;;;;22.90;16.97;;;;;;;9.18;100.00;100033.59;5012109;28;20198;-79
2022/04/28 03:04:39;;;;;;;18.50;15.67;;;;;;;9.08;100.00;100033.16;5006797;28;20202;-79
2022/04/28 03:12:42;;;;;;;22.67;16.40;;;;;;;9.08;100.00;100032.28;5056472;28;20201;-79
2022/04/28 03:15:11;;;;;;;23.63;16.57;;;;;;;9.00;100.00;100039.69;5053318;28;20200;-79
2022/04/28 03:17:39;;;;;;;19.17;16.90;;;;;;;9.04;100.00;100038.59;5053644;28;20227;-79
2022/04/28 03:20:13;;;;;;;19.50;16.37;;;;;;;9.04;100.00;100036.81;5052027;28;20209;-79
2022/04/28 03:22:44;;;;;;;22.23;17.03;;;;;;;8.88;100.00;100036.66;5049651;28;20193;-79
2022/04/28 03:25:19;;;;;;;21.83;16.70;;;;;;;8.70;100.00;100045.34;5052329;28;20193;-79
2022/04/28 03:27:48;;;;;;;20.37;16.97;;;;;;;8.65;100.00;100044.69;5053911;28;20193;-79
2022/04/28 03:30:18;;;;;;;24.73;17.03;;;;;;;8.65;100.00;100049.09;5051414;28;20204;-79
2022/04/28 03:32:49;;;;;;;22.17;17.57;;;;;;;8.49;100.00;100043.59;5054824;28;20264;-79
2022/04/28 03:35:17;;;;;;;20.27;16.40;;;;;;;8.64;100.00;100055.31;5059903;27;20280;-79
2022/04/28 03:37:47;;;;;;;21.70;17.13;;;;;;;8.42;100.00;100052.69;5051993;28;20189;-79
2022/04/28 03:40:16;;;;;;;21.63;16.70;;;;;;;7.98;100.00;100050.00;5048960;28;20196;-78
2022/04/28 03:42:48;;;;;;;23.67;17.83;;;;;;;8.18;100.00;100062.41;5052012;28;20204;-80
2022/04/28 03:45:16;;;;;;;23.43;18.30;;;;;;;8.13;100.00;100074.94;5052550;28;20660;-79
2022/04/28 03:47:45;;;;;;;23.33;18.03;;;;;;;8.22;100.00;100067.53;5054648;28;20216;-79
2022/04/28 03:50:14;;;;;;;24.90;19.17;;;;;;;8.01;100.00;100065.72;5055094;28;20272;-79
2022/04/28 03:52:42;;;;;;;25.57;17.83;;;;;;;8.09;100.00;100061.00;5047466;28;20231;-78
2022/04/28 03:55:11;;;;;;;21.43;17.23;;;;;;;8.03;100.00;100070.03;5048319;28;20193;-79
2022/04/28 03:57:40;;;;;;;24.67;17.80;;;;;;;8.09;100.00;100070.69;5054460;28;20253;-79
2022/04/28 04:00:11;;;;;;;25.43;17.53;;;;;;;8.20;100.00;100079.94;5052007;28;20201;-79
2022/04/28 04:02:39;;;;;;;21.60;16.63;;;;;;;8.13;100.00;100070.53;5050010;28;20268;-79
2022/04/28 04:05:09;;;;;;;21.93;16.17;;;;;;;8.24;100.00;100075.38;5049263;28;20185;-79
2022/04/28 04:07:39;;;;;;;20.70;16.43;;;;;;;8.15;100.00;100079.22;5021283;28;20299;-79
2022/04/28 04:10:09;;;;;;;21.63;16.90;;;;;;;8.11;100.00;100080.28;5051688;28;20216;-79
2022/04/28 04:12:38;;;;;;;21.20;17.17;;;;;;;8.06;100.00;100074.31;5050533;28;20193;-79
2022/04/28 04:15:07;;;;;;;18.80;16.03;;;;;;;8.08;100.00;100083.03;5048725;28;20194;-79
2022/04/28 04:17:45;;;;;;;22.10;17.17;;;;;;;8.07;100.00;100080.44;5052920;28;20235;-79
2022/04/28 04:20:15;;;;;;;23.37;16.80;;;;;;;8.00;100.00;100082.44;5049663;28;20246;-79
2022/04/28 04:22:44;;;;;;;21.30;16.97;;;;;;;8.04;100.00;100087.56;5052819;28;20288;-79
2022/04/28 04:25:13;;;;;;;21.53;16.73;;;;;;;8.09;100.00;100089.16;5050303;28;20205;-79
2022/04/28 04:27:41;;;;;;;23.37;17.63;;;;;;;8.07;100.00;100091.88;5049056;28;20236;-79
2022/04/28 04:32:58;;;;;;;20.17;16.50;;;;;;;8.23;100.00;100079.78;5055313;28;20212;-79
2022/04/28 04:35:27;;;;;;;24.37;18.00;;;;;;;8.24;100.00;100091.22;5054768;28;20193;-79
2022/04/28 04:37:56;;;;;;;23.93;17.80;;;;;;;8.39;100.00;100087.13;5054336;28;20197;-79
2022/04/28 04:40:26;;;;;;;21.03;17.77;;;;;;;8.41;100.00;100094.06;5052469;28;20212;-79
2022/04/28 04:42:56;;;;;;;23.30;17.37;;;;;;;8.43;100.00;100088.72;5053702;28;20200;-79
2022/04/28 04:45:25;;;;;;;21.00;16.63;;;;;;;8.49;100.00;100093.75;5051360;28;20621;-79
2022/04/28 04:47:54;;;;;;;22.90;18.07;;;;;;;8.50;100.00;100093.72;5056672;28;20223;-79
2022/04/28 04:50:24;;;;;;;19.87;16.70;;;;;;;8.48;100.00;100095.53;5048402;28;20208;-79
2022/04/28 04:52:52;;;;;;;21.10;17.53;;;;;;;8.62;100.00;100097.63;5053462;28;20259;-79
2022/04/28 04:55:21;;;;;;;23.03;17.27;;;;;;;8.64;100.00;100097.56;5044252;28;20639;-79
2022/04/28 04:57:49;;;;;;;21.13;16.43;;;;;;;8.65;100.00;100100.13;5046768;28;20193;-79
2022/04/28 05:00:19;;;;;;;23.10;17.30;;;;;;;8.73;100.00;100097.19;5046263;28;20204;-79
2022/04/28 05:02:48;;;;;;;20.20;17.07;;;;;;;8.74;100.00;100097.13;5002857;28;20212;-79
2022/04/28 05:05:17;;;;;;;22.47;18.20;;;;;;;8.79;100.00;100105.72;5051982;28;20189;-79
2022/04/28 05:07:52;;;;;;;23.23;17.60;;;;;;;8.40;100.00;100105.56;4953817;28;20224;-79
2022/04/28 05:10:22;;;;;;;22.57;17.17;;;;;;;8.40;100.00;100113.47;4949877;28;20204;-79
2022/04/28 05:12:51;;;;;;;21.17;17.33;;;;;;;8.56;100.00;100111.94;4974620;28;20202;-79
2022/04/28 05:15:20;;;;;;;22.90;18.00;;;;;;;8.42;100.00;100119.56;4994971;28;20198;-79
2022/04/28 05:17:49;;;;;;;22.80;18.20;;;;;;;8.69;100.00;100120.22;4992533;28;20198;-79
2022/04/28 05:20:17;;;;;;;23.33;18.17;;;;;;;8.59;100.00;100124.16;4990924;28;20203;-79
2022/04/28 05:22:47;;;;;;;23.40;18.63;;;;;;;8.67;100.00;100124.69;4987271;28;20210;-79
2022/04/28 05:25:17;;;;;;;30.43;18.90;;;;;;;8.59;100.00;100125.03;4949939;28;20201;-79
2022/04/28 05:27:46;;;;;;;22.77;18.87;;;;;;;8.71;100.00;100120.16;5031369;28;20217;-79
2022/04/28 05:30:15;;;;;;;23.83;18.27;;;;;;;8.70;100.00;100129.88;5026608;28;20676;-79
2022/04/28 05:32:44;;;;;;;24.70;18.30;;;;;;;8.81;100.00;100132.06;4980847;28;20198;-80
2022/04/28 05:35:13;;;;;;;23.63;18.37;;;;;;;8.91;100.00;100133.41;4975008;28;20288;-79
2022/04/28 05:37:42;;;;;;;23.43;18.27;;;;;;;8.98;100.00;100134.03;4969980;28;20272;-79
2022/04/28 05:40:15;;;;;;;26.93;18.13;;;;;;;8.93;100.00;100138.63;4966549;28;20335;-79
2022/04/28 05:45:46;;;;;;;27.47;18.47;;;;;;;9.09;100.00;100137.94;4993577;28;20195;-79
2022/04/28 05:48:15;;;;;;;28.20;19.10;;;;;;;9.14;100.00;100143.00;4954082;29;20216;-79
2022/04/28 05:50:44;;;;;;;24.33;18.40;;;;;;;9.19;100.00;100148.97;4952646;29;20213;-79
2022/04/28 05:53:13;;;;;;;23.47;18.40;;;;;;;9.27;100.00;100141.56;4952073;29;20248;-79
2022/04/28 05:55:42;;;;;;;23.97;19.10;;;;;;;9.34;100.00;100145.66;4948670;29;20208;-79
2022/04/28 05:58:13;;;;;;;24.77;18.67;;;;;;;9.54;100.00;100152.72;4932962;29;20204;-79
2022/04/28 06:00:42;;;;;;;24.20;17.67;;;;;;;9.70;100.00;100153.78;4936064;29;20201;-79
2022/04/28 06:03:11;;;;;;;23.27;18.53;;;;;;;9.74;100.00;100157.13;4938892;29;20299;-79
2022/04/28 06:05:42;;;;;;;22.83;17.83;;;;;;;9.75;100.00;100154.44;4977134;28;20201;-79
2022/04/28 06:08:12;;;;;;;21.47;17.50;;;;;;;9.72;100.00;100154.56;5054911;28;20220;-79
2022/04/28 06:10:42;;;;;;;23.57;18.57;;;;;;;9.75;100.00;100157.09;5054307;28;20196;-79
2022/04/28 06:13:15;;;;;;;23.80;18.17;;;;;;;9.87;100.00;100155.66;5051436;28;20204;-79
2022/04/28 06:15:47;;;;;;;26.27;18.60;;;;;;;10.04;100.00;100153.13;5053605;28;20201;-79
2022/04/28 06:18:15;;;;;;;24.77;17.13;;;;;;;10.06;100.00;100155.69;5013281;28;20203;-79
2022/04/28 06:20:44;;;;;;;26.53;18.10;;;;;;;10.21;100.00;100154.97;5010907;28;20194;-79
2022/04/28 06:23:13;;;;;;;23.10;17.83;;;;;;;10.23;100.00;100154.94;4933405;29;20277;-79
2022/04/28 06:25:42;;;;;;;23.63;18.27;;;;;;;10.26;100.00;100166.25;4921469;29;20313;-79
2022/04/28 06:28:13;;;;;;;20.83;17.60;;;;;;;10.53;100.00;100165.91;4927823;29;20233;-79
2022/04/28 06:30:43;;;;;;;22.23;16.67;;;;;;;10.51;100.00;100160.66;4930327;29;20200;-79
2022/04/28 06:33:13;;;;;;;24.77;17.03;;;;;;;10.72;100.00;100165.88;4892406;29;20202;-79
2022/04/28 06:35:42;;;;;;;20.90;16.97;;;;;;;10.73;100.00;100167.59;4895061;29;20289;-79
2022/04/28 06:38:11;;;;;;;23.33;16.90;;;;;;;10.70;100.00;100165.94;4895101;29;20281;-79
2022/04/28 06:40:42;;;;;;;20.03;16.33;;;;;;;10.79;100.00;100169.91;4905004;28;20187;-79
2022/04/28 06:43:12;;;;;;;21.13;16.50;;;;;;;11.02;100.00;100169.66;4932412;28;20200;-79
2022/04/28 06:46:11;;;;;;;19.93;16.10;;;;;;;11.04;100.00;100169.59;4954707;28;20197;-80
2022/04/28 06:48:34;;;;;;;20.10;15.90;;;;;;;11.11;100.00;100165.72;4949643;28;20230;-80
2022/04/28 06:51:04;;;;;;;21.90;15.97;;;;;;;11.10;100.00;100170.16;4958964;28;20718;-80
2022/04/28 06:53:37;;;;;;;19.97;14.97;;;;;;;11.12;100.00;100178.88;4933462;29;20728;-79
2022/04/28 06:56:06;;;;;;;17.93;15.53;;;;;;;11.27;100.00;100169.28;4917133;29;20209;-80
2022/04/28 06:58:40;;;;;;;21.43;15.20;;;;;;;11.49;100.00;100170.88;4927563;29;20216;-79
2022/04/28 07:01:09;;;;;;;19.20;15.27;;;;;;;11.59;100.00;100169.44;4895836;29;20269;-80
2022/04/28 07:03:40;;;;;;;19.23;15.50;;;;;;;11.61;100.00;100164.91;4891294;29;20213;-80
2022/04/28 07:06:09;;;;;;;20.30;14.93;;;;;;;11.79;100.00;100177.22;4893903;29;20198;-79
2022/04/28 07:08:38;;;;;;;20.40;14.33;;;;;;;11.78;100.00;100174.66;4909603;29;20304;-79
2022/04/28 07:11:07;;;;;;;19.70;15.87;;;;;;;11.88;100.00;100178.56;4909226;29;20205;-79
2022/04/28 07:13:39;;;;;;;19.63;14.93;;;;;;;11.68;100.00;100176.94;4904128;29;20193;-80
2022/04/28 07:16:09;;;;;;;20.60;14.90;;;;;;;11.91;100.00;100184.56;4930018;29;20205;-79
2022/04/28 07:18:37;;;;;;;19.63;15.30;;;;;;;12.09;100.00;100185.38;4930195;29;20193;-79
2022/04/28 07:21:06;;;;;;;20.27;14.23;;;;;;;12.07;100.00;100186.41;4932262;29;20205;-79
2022/04/28 07:23:40;;;;;;;19.17;14.73;;;;;;;12.21;100.00;100181.22;4928741;29;20197;-79
2022/04/28 07:26:12;;;;;;;20.23;14.33;;;;;;;12.51;100.00;100192.81;4931342;29;20204;-80
2022/04/28 07:28:49;;;;;;;19.17;14.27;;;;;;;12.73;100.00;100183.63;4950628;28;20217;-80
2022/04/28 07:31:17;;;;;;;17.07;13.63;;;;;;;12.74;100.00;100186.22;5009401;28;20220;-80
2022/04/28 07:33:47;;;;;;;17.47;13.93;;;;;;;12.71;100.00;100189.03;5052009;28;20185;-80
2022/04/28 07:36:16;;;;;;;17.00;13.87;;;;;;;12.91;100.00;100187.91;5044326;28;20223;-80
2022/04/28 07:38:46;;;;;;;16.60;13.63;;;;;;;12.97;100.00;100182.25;5046828;28;20201;-80
2022/04/28 07:41:14;;;;;;;17.83;13.47;;;;;;;12.95;100.00;100180.63;4997237;28;20193;-80
2022/04/28 07:43:45;;;;;;;20.87;13.40;;;;;;;13.15;100.00;100180.31;5044110;28;20319;-79
2022/04/28 07:46:16;;;;;;;17.63;13.67;;;;;;;13.29;100.00;100190.19;5032580;28;20197;-80
2022/04/28 07:48:48;;;;;;;16.90;12.87;;;;;;;13.45;100.00;100186.53;5043887;28;20213;-79
2022/04/28 07:51:17;;;;;;;16.53;13.13;;;;;;;13.31;100.00;100183.81;5053263;28;20648;-80
2022/04/28 07:53:46;;;;;;;17.33;13.43;;;;;;;13.44;100.00;100198.13;5051136;28;20225;-80
2022/04/28 07:56:20;;;;;;;15.53;13.23;;;;;;;13.52;100.00;100192.38;5048723;28;20197;-80
2022/04/28 07:58:51;;;;;;;18.27;12.97;;;;;;;13.66;100.00;100194.19;5047718;28;20193;-80
2022/04/28 08:01:43;;;;;;;18.40;13.07;;;;;;;14.07;100.00;100188.13;5091503;28;20203;-80
2022/04/28 08:04:14;;;;;;;14.30;11.80;;;;;;;14.15;100.00;100191.19;4991059;28;20759;-80
2022/04/28 08:06:42;;;;;;;15.37;12.10;;;;;;;13.97;100.00;100198.50;4993090;28;20195;-80
2022/04/28 08:09:14;;;;;;;15.20;12.07;;;;;;;14.14;100.00;100192.16;4987367;28;20215;-80
2022/04/28 08:11:42;;;;;;;14.63;12.53;;;;;;;14.01;100.00;100192.91;4985072;28;20199;-80
2022/04/28 08:14:11;;;;;;;17.53;13.00;;;;;;;14.16;100.00;100192.91;4988593;28;20207;-80
2022/04/28 08:16:40;;;;;;;17.57;12.70;;;;;;;14.19;100.00;100198.91;4987789;28;20210;-80
2022/04/28 08:19:12;;;;;;;16.07;12.00;;;;;;;14.23;100.00;100203.09;4981856;28;20207;-80
2022/04/28 08:21:42;;;;;;;15.07;11.93;;;;;;;14.37;100.00;100204.03;4980672;28;20193;-80
2022/04/28 08:24:11;;;;;;;14.47;11.43;;;;;;;14.50;100.00;100200.53;5050551;28;20204;-80
2022/04/28 08:26:40;;;;;;;14.53;11.73;;;;;;;14.79;100.00;100201.34;5046794;28;20205;-80
2022/04/28 08:29:11;;;;;;;14.00;10.87;;;;;;;14.76;100.00;100206.84;5048451;28;20209;-80
2022/04/28 08:31:43;;;;;;;15.50;11.60;;;;;;;14.95;100.00;100201.19;5048464;28;20275;-81
2022/04/28 08:34:15;;;;;;;13.93;11.97;;;;;;;14.85;100.00;100203.59;5052661;28;20197;-80
2022/04/28 08:36:46;;;;;;;14.27;11.63;;;;;;;15.05;100.00;100202.28;5052149;28;20193;-80
2022/04/28 08:39:17;;;;;;;16.03;11.70;;;;;;;15.14;100.00;100204.34;5052651;28;20207;-80
2022/04/28 08:41:48;;;;;;;14.33;11.00;;;;;;;15.51;100.00;100211.72;4987654;28;20206;-81
2022/04/28 08:44:19;;;;;;;17.80;12.13;;;;;;;15.54;100.00;100203.50;4987270;28;20199;-80
2022/04/28 08:46:54;;;;;;;17.13;12.17;;;;;;;15.45;100.00;100205.84;4986207;28;20191;-80
2022/04/28 08:49:26;;;;;;;13.17;11.77;;;;;;;15.44;100.00;100208.59;4988872;28;20215;-81
2022/04/28 08:51:57;;;;;;;14.97;11.57;;;;;;;15.26;100.00;100205.38;4989129;28;20195;-80
2022/04/28 08:54:29;;;;;;;12.33;11.03;;;;;;;15.48;100.00;100203.94;4952057;28;20248;-81
2022/04/28 08:57:07;;;;;;;14.27;11.33;;;;;;;15.53;100.00;100204.44;4953521;28;20220;-81
2022/04/28 08:59:36;;;;;;;14.30;11.03;;;;;;;16.24;100.00;100207.53;4947077;28;20276;-81
2022/04/28 09:02:05;;;;;;;14.63;11.03;;;;;;;15.98;100.00;100204.00;4953027;28;20196;-81
2022/04/28 09:04:37;;;;;;;14.17;11.40;;;;;;;16.26;100.00;100208.28;4951104;28;20280;-81
2022/04/28 09:07:10;;;;;;;14.80;9.57;;;;;;;16.13;100.00;100206.59;4951022;28;20208;-80
2022/04/28 09:09:39;;;;;;;11.63;9.73;;;;;;;16.44;100.00;100215.97;4947923;28;20313;-81
2022/04/28 09:12:12;;;;;;;12.37;9.93;;;;;;;16.42;100.00;100217.91;4972854;28;20205;-80
2022/04/28 09:14:44;;;;;;;12.60;10.00;;;;;;;16.94;100.00;100209.66;5044703;28;20621;-81
2022/04/28 09:17:13;;;;;;;11.23;9.77;;;;;;;16.89;100.00;100209.16;5049202;28;20201;-80
2022/04/28 09:19:43;;;;;;;12.50;9.80;;;;;;;16.94;100.00;100217.69;5048434;28;20197;-80
2022/04/28 09:22:13;;;;;;;10.07;9.00;;;;;;;17.22;100.00;100219.16;5051570;28;20197;-81
2022/04/28 09:24:44;;;;;;;13.47;9.00;;;;;;;17.24;100.00;100214.56;5054820;28;20284;-81
2022/04/28 09:27:14;;;;;;;11.30;9.20;;;;;;;17.16;100.00;100214.25;5051875;28;20197;-80
2022/04/28 09:29:44;;;;;;;11.60;9.20;;;;;;;17.42;100.00;100209.63;5053530;28;20217;-80
2022/04/28 09:32:17;;;;;;;11.30;9.37;;;;;;;17.64;100.00;100211.53;5050011;28;20207;-80
2022/04/28 09:35:11;;;;;;;10.00;8.67;;;;;;;17.77;100.00;100206.13;5056151;28;20205;-81
2022/04/28 09:37:40;;;;;;;12.50;9.03;;;;;;;17.92;100.00;100212.97;5053592;28;20204;-81
2022/04/28 09:42:59;;;;;;;9.93;7.93;;;;;;;18.02;100.00;100197.88;5051004;28;20433;-81
2022/04/28 09:45:32;;;;;;;10.50;8.70;;;;;;;18.14;98.46;100206.78;5049581;28;20197;-81
2022/04/28 09:48:02;;;;;;;11.03;8.40;;;;;;;18.20;96.96;100204.47;4994857;28;20204;-81
2022/04/28 09:50:32;;;;;;;11.57;9.37;;;;;;;18.29;98.39;100189.50;4971564;28;20243;-80
2022/04/28 09:53:08;;;;;;;10.40;9.30;;;;;;;18.74;100.00;100190.34;4968562;28;20235;-81
2022/04/28 09:55:41;;;;;;;10.27;8.50;;;;;;;17.81;97.04;100191.53;4981502;28;20203;-81
2022/04/28 09:58:10;;;;;;;9.97;8.20;;;;;;;18.24;97.02;100186.34;4992346;28;20229;-81
2022/04/28 10:00:39;;;;;;;11.20;9.40;;;;;;;18.11;94.46;100193.63;4988757;28;20226;-80
2022/04/28 10:03:11;;;;;;;9.10;7.53;;;;;;;18.25;96.29;100188.03;4990297;28;20816;-80
2022/04/28 10:05:42;;;;;;;11.17;8.63;;;;;;;18.62;93.94;100179.69;4991617;28;20230;-81
2022/04/28 10:08:13;;;;;;;9.60;8.57;;;;;;;19.13;98.67;100185.38;4993930;28;20194;-81
2022/04/28 10:10:44;;;;;;;11.67;8.83;;;;;;;19.09;94.64;100179.38;4973547;28;20294;-81
2022/04/28 10:13:14;;;;;;;11.03;8.63;;;;;;;19.28;90.82;100192.13;4970875;28;20198;-81
2022/04/28 10:15:43;;;;;;;9.37;8.33;;;;;;;19.18;88.60;100191.19;4968663;28;20248;-81
2022/04/28 10:18:16;;;;;;;10.47;8.43;;;;;;;18.79;90.39;100189.97;4970351;28;20304;-80
2022/04/28 10:20:51;;;;;;;10.47;7.53;;;;;;;18.92;86.06;100185.31;4971952;28;20282;-81
2022/04/28 10:32:22;;;;;;;11.33;7.33;;;;;;;19.61;82.91;100184.94;4973937;28;20287;-81
2022/04/28 10:35:06;;;;;;;9.30;6.97;;;;;;;20.92;75.91;100180.56;5036854;28;20374;-81
2022/04/28 10:37:41;;;;;;;9.80;7.10;;;;;;;21.41;65.97;100185.03;5055355;28;20671;-81
2022/04/28 10:40:16;;;;;;;10.40;7.30;;;;;;;19.44;71.32;100187.19;5053921;28;20193;-81
2022/04/28 10:43:01;;;;;;;7.47;6.00;;;;;;;20.57;68.98;100173.84;5044276;28;20192;-81
2022/04/28 10:45:41;;;;;;;8.80;6.50;;;;;;;20.98;66.06;100182.72;5025960;28;20255;-82
2022/04/28 10:51:16;;;;;;;7.23;6.10;;;;;;;21.20;58.78;100184.31;4972989;28;20310;-81
2022/04/28 10:54:05;;;;;;;7.37;5.43;;;;;;;21.34;55.85;100186.63;4874451;29;20229;-81
2022/04/28 10:57:02;;;;;;;6.90;5.23;;;;;;;21.74;53.24;100177.50;4870010;29;20279;-81
2022/04/28 10:59:34;;;;;;;6.80;6.10;;;;;;;21.84;54.76;100171.09;4877386;29;20251;-81
2022/04/28 11:02:49;;;;;;;6.43;5.83;;;;;;;21.77;57.98;100174.50;4874722;29;20240;-81
2022/04/28 11:05:32;;;;;;;7.63;5.50;;;;;;;20.78;59.48;100171.06;4874321;29;20211;-81
2022/04/28 11:08:13;;;;;;;5.07;4.57;;;;;;;21.34;53.50;100178.53;4887287;28;20207;-81
2022/04/28 11:11:13;;;;;;;5.33;4.40;;;;;;;22.05;46.47;100178.97;4973582;28;20714;-81
2022/04/28 11:13:46;;;;;;;4.87;4.10;;;;;;;21.15;44.79;100174.81;5047119;28;20205;-81
2022/04/28 11:16:16;;;;;;;6.53;4.77;;;;;;;21.15;47.24;100176.66;5047095;28;20204;-81
2022/04/28 11:18:45;;;;;;;5.73;4.73;;;;;;;20.66;47.54;100167.66;5049903;28;20233;-81
2022/04/28 11:21:16;;;;;;;6.63;5.10;;;;;;;19.96;55.02;100168.44;5049695;28;20224;-82
2022/04/28 11:23:47;;;;;;;6.57;5.20;;;;;;;20.07;55.96;100159.44;5049569;28;20271;-81
2022/04/28 11:26:19;;;;;;;7.63;5.00;;;;;;;20.79;54.74;100160.16;5051261;28;20228;-81
2022/04/28 11:28:48;;;;;;;7.13;4.70;;;;;;;21.33;55.21;100158.81;5049070;28;20212;-82
2022/04/28 11:31:29;;;;;;;4.97;4.30;;;;;;;21.78;53.56;100152.78;5045154;28;20228;-81
2022/04/28 11:33:58;;;;;;;6.00;4.60;;;;;;;22.53;50.91;100157.22;5051822;28;20276;-81
2022/04/28 11:36:30;;;;;;;4.53;4.00;;;;;;;21.95;50.94;100159.28;4969183;28;20196;-81
2022/04/28 11:39:01;;;;;;;3.70;3.23;;;;;;;21.39;44.93;100166.31;4968256;28;20204;-81
2022/04/28 11:41:35;;;;;;;5.80;3.20;;;;;;;21.52;43.11;100168.75;4965487;28;20204;-81
2022/04/28 11:44:12;;;;;;;3.37;2.80;;;;;;;21.33;38.60;100158.81;4967686;28;20203;-81
2022/04/28 11:46:52;;;;;;;4.80;3.20;;;;;;;21.89;42.61;100149.91;4932068;29;20197;-81
2022/04/28 11:49:23;;;;;;;3.72;3.35;;;;;;;21.54;44.15;100163.19;4929919;29;20205;-82
2022/04/28 11:51:55;;;;;;;3.67;3.30;;;;;;;21.76;44.21;100165.56;4950465;29;20220;-82
2022/04/28 11:54:25;;;;;;;5.23;3.40;;;;;;;20.70;50.38;100152.06;4950533;29;20644;-81
2022/04/28 11:57:12;;;;;;;4.67;3.17;;;;;;;21.60;43.08;100159.91;4952748;29;20204;-81
2022/04/28 11:59:42;;;;;;;3.83;3.00;;;;;;;22.20;43.12;100152.41;4953334;29;20351;-81
2022/04/28 12:02:26;;;;;;;4.13;3.27;;;;;;;20.75;41.44;100155.16;5019781;28;20194;-81